AF13 weather

Sheber Too Landing Zone Airport
Bamiyan Province, Afghanistan

Public forecast

Using degrees Celsius for public forecast. Weather courtesy of forecast.io.

METAR (pilot weather report)

Closest report is Hamid Karzai International Airport, 86.2 nm (159.6 km) E. Retrieved 2019/08/25 00:50 UTC (42 minutes ago):

OAKB 250050Z 34002KT 8000 NSC 20/12 Q1016 NOSIG RMK A3001 BLU BLU

TAF (pilot weather forecast)

Forecast is more than 12 hours old.

Closest forecast is Hamid Karzai International Airport, 86.2 nm (159.6 km) E. Retrieved 2019/08/24 00:05 UTC (1 day ago):

TAF OAKB 242305Z 2500/2524 VRB02KT CAVOK TEMPO 2500/2504 7000 BECMG 2506/2508 08010KT FEW060 TEMPO 2510/2516 07010G20KT SCT080 PROB40 TEMPO 2510/2515 06020G40KT 5000 TSRA SCT045CB SCT060 BECMG 2518/2520 VRB02KT CAVOK